Time;durP1;ratioP1;P1;durP2;ratioP2;P2;SDS_P1;SDS_P2;PMS_P1;PMS_P2;Temp;Humidity;BMP_temperature;BMP_pressure;BME280_temperature;BME280_humidity;BME280_pressure;Samples;Min_cycle;Max_cycle;Signal;HPM_P1;HPM_P2
2024/01/23 00:01:27;;;;;;;7.10;2.20;;;;;;;;;;5038090;28;20521;-87
2024/01/23 00:03:54;;;;;;;8.15;1.35;;;;;;;;;;5036268;28;20052;-86
2024/01/23 00:06:22;;;;;;;14.82;1.80;;;;;;;;;;5035693;28;20048;-87
2024/01/23 00:08:49;;;;;;;10.93;1.83;;;;;;;;;;5026091;28;20049;-86
2024/01/23 00:11:16;;;;;;;11.15;1.58;;;;;;;;;;5051816;28;20040;-86
2024/01/23 00:13:45;;;;;;;7.45;2.05;;;;;;;;;;5036234;28;20045;-86
2024/01/23 00:16:14;;;;;;;8.68;1.30;;;;;;;;;;5036444;28;20097;-86
2024/01/23 00:18:41;;;;;;;9.55;1.85;;;;;;;;;;5036461;28;20102;-87
2024/01/23 00:21:08;;;;;;;9.95;1.52;;;;;;;;;;5037004;28;20053;-86
2024/01/23 00:23:36;;;;;;;14.63;2.17;;;;;;;;;;5032962;28;20049;-86
2024/01/23 00:26:03;;;;;;;12.93;1.88;;;;;;;;;;5025690;28;20057;-86
2024/01/23 00:28:30;;;;;;;10.68;1.85;;;;;;;;;;5032392;28;20057;-87
2024/01/23 00:30:58;;;;;;;8.00;2.22;;;;;;;;;;5016570;28;20499;-87
2024/01/23 00:33:25;;;;;;;7.20;1.48;;;;;;;;;;5028487;28;20049;-87
2024/01/23 00:35:52;;;;;;;8.10;2.03;;;;;;;;;;5028074;28;20052;-87
2024/01/23 00:38:20;;;;;;;10.10;1.83;;;;;;;;;;5035177;28;20429;-86
2024/01/23 00:40:47;;;;;;;8.68;1.77;;;;;;;;;;5026186;28;20050;-87
2024/01/23 00:43:15;;;;;;;10.93;2.03;;;;;;;;;;5016904;28;20050;-87
2024/01/23 00:45:43;;;;;;;11.13;1.85;;;;;;;;;;5027255;28;20045;-87
2024/01/23 00:48:13;;;;;;;9.32;1.73;;;;;;;;;;5025954;28;20073;-87
2024/01/23 00:50:41;;;;;;;15.45;2.45;;;;;;;;;;5035410;28;20048;-87
2024/01/23 00:53:08;;;;;;;13.75;1.80;;;;;;;;;;5035376;28;20045;-87
2024/01/23 00:55:35;;;;;;;17.30;2.38;;;;;;;;;;5032270;28;20045;-87
2024/01/23 00:58:02;;;;;;;7.15;1.60;;;;;;;;;;5027495;28;20553;-87
2024/01/23 01:00:30;;;;;;;11.65;1.75;;;;;;;;;;5053496;28;20041;-86
2024/01/23 01:02:57;;;;;;;11.68;1.98;;;;;;;;;;5035481;28;20049;-87
2024/01/23 01:05:24;;;;;;;10.48;1.83;;;;;;;;;;5035515;28;20409;-86
2024/01/23 01:07:52;;;;;;;11.65;2.28;;;;;;;;;;5036044;28;20113;-87
2024/01/23 01:10:19;;;;;;;7.80;1.95;;;;;;;;;;5035687;28;20048;-87
2024/01/23 01:12:47;;;;;;;9.93;2.30;;;;;;;;;;5028276;28;20042;-86
2024/01/23 01:15:14;;;;;;;8.55;1.77;;;;;;;;;;5038128;28;20422;-87
2024/01/23 01:17:42;;;;;;;10.35;1.77;;;;;;;;;;5056884;28;20406;-87
2024/01/23 01:20:09;;;;;;;10.18;1.52;;;;;;;;;;5036575;28;20052;-87
2024/01/23 01:22:36;;;;;;;8.32;1.80;;;;;;;;;;5019442;28;20052;-87
2024/01/23 01:25:04;;;;;;;6.05;1.27;;;;;;;;;;5033206;28;20079;-87
2024/01/23 01:27:31;;;;;;;7.25;1.50;;;;;;;;;;5039171;28;20516;-86
2024/01/23 01:29:59;;;;;;;7.32;1.48;;;;;;;;;;5039266;28;20052;-86
2024/01/23 01:32:26;;;;;;;9.15;1.50;;;;;;;;;;5038930;28;20051;-87
2024/01/23 01:34:53;;;;;;;7.30;1.45;;;;;;;;;;5036233;28;20050;-86
2024/01/23 01:37:21;;;;;;;9.30;1.80;;;;;;;;;;5023602;28;20045;-86
2024/01/23 01:39:48;;;;;;;9.20;1.52;;;;;;;;;;5056418;28;20040;-86
2024/01/23 01:42:16;;;;;;;4.80;1.30;;;;;;;;;;5031124;28;20107;-86
2024/01/23 01:44:43;;;;;;;6.78;1.45;;;;;;;;;;5035768;28;20136;-86
2024/01/23 01:47:11;;;;;;;4.60;1.30;;;;;;;;;;5031016;28;20058;-86
2024/01/23 01:49:38;;;;;;;5.78;1.45;;;;;;;;;;5039613;28;20115;-86
2024/01/23 01:52:05;;;;;;;9.02;1.65;;;;;;;;;;5030983;28;20509;-86
2024/01/23 01:54:33;;;;;;;12.82;1.70;;;;;;;;;;5035816;28;20047;-86
2024/01/23 01:57:00;;;;;;;7.53;1.25;;;;;;;;;;5020219;28;20046;-86
2024/01/23 01:59:31;;;;;;;5.40;1.42;;;;;;;;;;5031127;28;20049;-86
2024/01/23 02:01:58;;;;;;;3.28;1.20;;;;;;;;;;5030623;28;20521;-86
2024/01/23 02:04:26;;;;;;;9.65;1.38;;;;;;;;;;5056802;28;20053;-86
2024/01/23 02:06:53;;;;;;;6.80;1.67;;;;;;;;;;5058415;28;20081;-86
2024/01/23 02:09:20;;;;;;;8.65;1.98;;;;;;;;;;5049125;28;20053;-86
2024/01/23 02:11:55;;;;;;;5.03;1.17;;;;;;;;;;5057707;28;20465;-86
2024/01/23 02:14:22;;;;;;;7.07;1.60;;;;;;;;;;5039908;28;20051;-86
2024/01/23 02:16:49;;;;;;;9.25;1.73;;;;;;;;;;5058047;28;20099;-86
2024/01/23 02:19:16;;;;;;;8.25;1.38;;;;;;;;;;5040038;28;20124;-86
2024/01/23 02:21:44;;;;;;;9.68;1.52;;;;;;;;;;5037393;28;20414;-86
2024/01/23 02:24:11;;;;;;;7.97;1.55;;;;;;;;;;5034390;28;20053;-86
2024/01/23 02:26:38;;;;;;;5.40;1.10;;;;;;;;;;5035522;28;20056;-86
2024/01/23 02:29:06;;;;;;;9.20;1.77;;;;;;;;;;5028387;28;20054;-86
2024/01/23 02:31:33;;;;;;;9.85;1.70;;;;;;;;;;5038802;28;20559;-86
2024/01/23 02:34:00;;;;;;;11.35;2.00;;;;;;;;;;5030059;28;20486;-86
2024/01/23 02:36:27;;;;;;;6.78;1.50;;;;;;;;;;5034708;28;20076;-86
2024/01/23 02:38:55;;;;;;;5.93;1.52;;;;;;;;;;5052269;28;20041;-86
2024/01/23 02:41:22;;;;;;;8.38;1.42;;;;;;;;;;5030252;28;20045;-86
2024/01/23 02:43:49;;;;;;;7.28;1.65;;;;;;;;;;5031059;28;20046;-87
2024/01/23 02:46:17;;;;;;;9.88;1.55;;;;;;;;;;5028243;28;20056;-86
2024/01/23 02:48:44;;;;;;;7.90;1.65;;;;;;;;;;5032244;28;20045;-86
2024/01/23 02:51:17;;;;;;;8.23;2.00;;;;;;;;;;5034916;28;20516;-86
2024/01/23 02:53:45;;;;;;;7.97;1.50;;;;;;;;;;5037906;28;20116;-86
2024/01/23 02:56:13;;;;;;;8.68;1.40;;;;;;;;;;5030148;28;20046;-86
2024/01/23 02:58:41;;;;;;;8.73;1.30;;;;;;;;;;5038306;28;20106;-86
2024/01/23 03:01:08;;;;;;;7.22;1.27;;;;;;;;;;5036042;28;20057;-86
2024/01/23 03:03:35;;;;;;;4.72;1.23;;;;;;;;;;5029903;28;20049;-86
2024/01/23 03:06:03;;;;;;;11.15;1.88;;;;;;;;;;5055570;28;20060;-86
2024/01/23 03:08:30;;;;;;;7.55;1.83;;;;;;;;;;5033829;28;20132;-86
2024/01/23 03:10:57;;;;;;;7.65;1.17;;;;;;;;;;5018248;28;20053;-86
2024/01/23 03:13:25;;;;;;;5.18;1.30;;;;;;;;;;5026192;28;20046;-86
2024/01/23 03:15:53;;;;;;;9.30;1.40;;;;;;;;;;5051069;28;20049;-86
2024/01/23 03:18:20;;;;;;;13.18;1.67;;;;;;;;;;5039073;28;20052;-85
2024/01/23 03:20:48;;;;;;;9.02;1.60;;;;;;;;;;5036878;28;20071;-86
2024/01/23 03:23:15;;;;;;;11.50;1.80;;;;;;;;;;5046011;28;20049;-86
2024/01/23 03:25:43;;;;;;;5.55;1.92;;;;;;;;;;5037135;28;20058;-86
2024/01/23 03:28:11;;;;;;;14.52;2.60;;;;;;;;;;5033034;28;20068;-88
2024/01/23 03:30:39;;;;;;;8.55;1.50;;;;;;;;;;5036772;28;20056;-87
2024/01/23 03:33:06;;;;;;;9.73;1.80;;;;;;;;;;5028345;28;20049;-87
2024/01/23 03:35:34;;;;;;;10.43;1.52;;;;;;;;;;5036792;28;20136;-87
2024/01/23 03:38:01;;;;;;;8.95;1.85;;;;;;;;;;5036453;28;20095;-87
2024/01/23 03:40:28;;;;;;;9.32;1.30;;;;;;;;;;5038620;28;20052;-87
2024/01/23 03:42:55;;;;;;;11.52;1.65;;;;;;;;;;5038984;28;20053;-87
2024/01/23 03:45:23;;;;;;;10.57;1.48;;;;;;;;;;5036603;28;20564;-87
2024/01/23 03:47:52;;;;;;;10.25;1.52;;;;;;;;;;5026274;28;20065;-87
2024/01/23 03:50:20;;;;;;;13.05;1.45;;;;;;;;;;5035679;28;20055;-87
2024/01/23 03:52:47;;;;;;;8.00;1.38;;;;;;;;;;5029370;28;20046;-87
2024/01/23 03:55:15;;;;;;;10.23;1.42;;;;;;;;;;5035472;28;20045;-88
2024/01/23 03:57:44;;;;;;;6.47;1.35;;;;;;;;;;5036986;28;20497;-87
2024/01/23 04:00:12;;;;;;;5.70;1.50;;;;;;;;;;5036473;28;20069;-87
2024/01/23 04:02:43;;;;;;;5.22;1.48;;;;;;;;;;5036500;28;20056;-88
2024/01/23 04:05:24;;;;;;;6.95;1.48;;;;;;;;;;5037407;28;20044;-89
2024/01/23 04:11:43;;;;;;;;;;;;;;;;;;5045885;28;20064;-89
2024/01/23 04:14:13;;;;;;;6.32;0.70;;;;;;;;;;5040631;28;19920;-88
2024/01/23 04:16:49;;;;;;;6.07;0.98;;;;;;;;;;5036329;28;20052;-88
2024/01/23 04:19:17;;;;;;;7.80;1.15;;;;;;;;;;5037590;28;20116;-88
2024/01/23 04:21:46;;;;;;;11.75;1.30;;;;;;;;;;5036606;28;20060;-88
2024/01/23 04:24:13;;;;;;;6.65;0.95;;;;;;;;;;5026970;28;20504;-88
2024/01/23 04:26:44;;;;;;;3.15;1.25;;;;;;;;;;5038851;28;20049;-87
2024/01/23 04:29:12;;;;;;;6.55;1.52;;;;;;;;;;5037437;28;20049;-89
2024/01/23 04:31:44;;;;;;;5.50;0.90;;;;;;;;;;5035489;28;20053;-88
2024/01/23 04:34:17;;;;;;;1.35;0.60;;;;;;;;;;5030162;28;20660;-88
2024/01/23 04:37:08;;;;;;;4.80;0.80;;;;;;;;;;5030776;28;20072;-89
2024/01/23 04:40:07;;;;;;;4.43;1.17;;;;;;;;;;5095543;27;20389;-83
2024/01/23 04:42:35;;;;;;;4.78;1.40;;;;;;;;;;5074403;28;20098;-83
2024/01/23 04:45:03;;;;;;;3.72;0.88;;;;;;;;;;5083950;28;20049;-83
2024/01/23 04:47:30;;;;;;;5.57;1.45;;;;;;;;;;5053723;28;20053;-83
2024/01/23 04:49:57;;;;;;;5.97;1.65;;;;;;;;;;5053594;28;20048;-83
2024/01/23 04:52:25;;;;;;;5.78;1.30;;;;;;;;;;5058160;22;20116;-88
2024/01/23 04:54:52;;;;;;;5.32;1.17;;;;;;;;;;5037646;28;20076;-89
2024/01/23 04:57:19;;;;;;;3.03;0.93;;;;;;;;;;5040565;28;20088;-88
2024/01/23 04:59:48;;;;;;;3.67;2.05;;;;;;;;;;5041064;28;20056;-89
2024/01/23 05:02:15;;;;;;;8.38;3.58;;;;;;;;;;5040891;28;20053;-88
2024/01/23 05:04:44;;;;;;;11.57;6.55;;;;;;;;;;5042324;28;20080;-89
2024/01/23 05:07:11;;;;;;;7.70;3.97;;;;;;;;;;5039169;28;20049;-88
2024/01/23 05:09:38;;;;;;;7.88;2.38;;;;;;;;;;5043136;28;20449;-88
2024/01/23 05:12:06;;;;;;;5.60;2.33;;;;;;;;;;5040844;28;20087;-88
2024/01/23 05:14:33;;;;;;;6.60;2.40;;;;;;;;;;5040731;28;20053;-89
2024/01/23 05:17:01;;;;;;;4.40;2.53;;;;;;;;;;5041377;28;20163;-88
2024/01/23 05:19:28;;;;;;;15.80;7.85;;;;;;;;;;5037186;28;20053;-89
2024/01/23 05:21:56;;;;;;;9.25;4.82;;;;;;;;;;5037255;28;20137;-88
2024/01/23 05:24:25;;;;;;;8.57;5.18;;;;;;;;;;5040392;28;20045;-88
2024/01/23 05:26:52;;;;;;;8.18;5.05;;;;;;;;;;5040573;28;20052;-89
2024/01/23 05:29:19;;;;;;;12.70;5.88;;;;;;;;;;5040865;28;20080;-89
2024/01/23 05:31:46;;;;;;;7.18;4.13;;;;;;;;;;5040574;28;20459;-88
2024/01/23 05:34:13;;;;;;;12.95;5.13;;;;;;;;;;5038450;28;20053;-88
2024/01/23 05:36:41;;;;;;;11.63;5.82;;;;;;;;;;5037127;28;20073;-87
2024/01/23 05:39:08;;;;;;;3.40;2.20;;;;;;;;;;5038098;28;20061;-88
2024/01/23 05:41:35;;;;;;;6.95;2.13;;;;;;;;;;5040389;28;20060;-88
2024/01/23 05:44:03;;;;;;;5.00;2.75;;;;;;;;;;5045511;28;20053;-89
2024/01/23 05:46:32;;;;;;;12.63;2.33;;;;;;;;;;5039110;28;20049;-89
2024/01/23 05:49:00;;;;;;;5.63;2.03;;;;;;;;;;5037098;28;20054;-88
2024/01/23 05:51:27;;;;;;;12.82;5.80;;;;;;;;;;5023512;28;20057;-88
2024/01/23 05:53:54;;;;;;;19.15;9.18;;;;;;;;;;5023404;28;20423;-88
2024/01/23 05:56:21;;;;;;;12.20;6.22;;;;;;;;;;5026336;28;20050;-88
2024/01/23 05:58:49;;;;;;;13.25;5.53;;;;;;;;;;5026783;28;20474;-88
2024/01/23 06:01:16;;;;;;;10.77;3.35;;;;;;;;;;5022647;28;20072;-89
2024/01/23 06:03:43;;;;;;;8.63;2.22;;;;;;;;;;5023578;28;20137;-89
2024/01/23 06:06:10;;;;;;;9.00;2.30;;;;;;;;;;5024534;28;20054;-88
2024/01/23 06:08:38;;;;;;;7.22;2.42;;;;;;;;;;5026790;28;20057;-89
2024/01/23 06:11:05;;;;;;;10.70;2.28;;;;;;;;;;5026653;28;20046;-88
2024/01/23 06:13:32;;;;;;;5.40;2.05;;;;;;;;;;5026413;28;20049;-88
2024/01/23 06:15:59;;;;;;;8.60;2.10;;;;;;;;;;5026417;28;20508;-88
2024/01/23 06:18:27;;;;;;;10.80;2.20;;;;;;;;;;5023141;28;20065;-89
2024/01/23 06:20:54;;;;;;;9.48;2.38;;;;;;;;;;5023409;28;20054;-88
2024/01/23 06:23:22;;;;;;;7.70;2.92;;;;;;;;;;5026182;28;20050;-88
2024/01/23 06:25:49;;;;;;;11.80;3.03;;;;;;;;;;5026511;28;20448;-88
2024/01/23 06:28:17;;;;;;;14.88;3.10;;;;;;;;;;5026569;28;20050;-88
2024/01/23 06:30:44;;;;;;;11.77;2.97;;;;;;;;;;5026494;28;20084;-88
2024/01/23 06:33:12;;;;;;;9.40;2.55;;;;;;;;;;5024848;28;20555;-88
2024/01/23 06:35:40;;;;;;;12.70;3.47;;;;;;;;;;5023075;28;20454;-88
2024/01/23 06:38:07;;;;;;;13.80;3.05;;;;;;;;;;5025154;28;20174;-89
2024/01/23 06:40:34;;;;;;;11.65;3.33;;;;;;;;;;5026474;28;20057;-88
2024/01/23 06:43:01;;;;;;;8.52;2.92;;;;;;;;;;5025861;28;20069;-89
2024/01/23 06:45:28;;;;;;;10.23;2.80;;;;;;;;;;5022925;28;20085;-88
2024/01/23 06:47:56;;;;;;;14.35;3.90;;;;;;;;;;5022848;28;20053;-88
2024/01/23 06:50:23;;;;;;;16.33;4.30;;;;;;;;;;5026002;28;20049;-88
2024/01/23 06:52:50;;;;;;;63.58;28.90;;;;;;;;;;5027321;28;20053;-88
2024/01/23 06:55:18;;;;;;;24.10;8.15;;;;;;;;;;5024657;28;20513;-88
2024/01/23 06:57:45;;;;;;;17.10;5.60;;;;;;;;;;5026056;28;20096;-88
2024/01/23 07:00:12;;;;;;;19.17;5.40;;;;;;;;;;5033964;28;20056;-89
2024/01/23 07:02:40;;;;;;;16.60;4.22;;;;;;;;;;5021565;28;20052;-88
2024/01/23 07:05:07;;;;;;;16.45;4.00;;;;;;;;;;5023217;28;20050;-88
2024/01/23 07:07:35;;;;;;;13.75;3.60;;;;;;;;;;5025617;28;20045;-88
2024/01/23 07:10:02;;;;;;;19.17;4.70;;;;;;;;;;5025654;28;20054;-88
2024/01/23 07:12:30;;;;;;;11.57;3.10;;;;;;;;;;5025912;28;20115;-89
2024/01/23 07:14:57;;;;;;;24.55;3.53;;;;;;;;;;5025707;28;20053;-88
2024/01/23 07:17:24;;;;;;;17.08;4.00;;;;;;;;;;5022167;28;20082;-89
2024/01/23 07:19:52;;;;;;;17.30;3.80;;;;;;;;;;5029091;28;20060;-89
2024/01/23 07:22:19;;;;;;;13.23;3.65;;;;;;;;;;5022629;28;20057;-88
2024/01/23 07:24:46;;;;;;;18.73;3.97;;;;;;;;;;5021967;28;20494;-90
2024/01/23 07:27:13;;;;;;;16.30;2.90;;;;;;;;;;5024133;28;20153;-89
2024/01/23 07:29:41;;;;;;;9.52;2.40;;;;;;;;;;5025502;28;20469;-89
2024/01/23 07:32:09;;;;;;;15.43;2.55;;;;;;;;;;5023967;28;20103;-90
2024/01/23 07:34:36;;;;;;;12.77;2.75;;;;;;;;;;5022578;28;20123;-89
2024/01/23 07:37:04;;;;;;;13.48;2.72;;;;;;;;;;5022139;28;20057;-89
2024/01/23 07:39:31;;;;;;;10.88;2.08;;;;;;;;;;5024997;28;20050;-89
2024/01/23 07:41:58;;;;;;;11.02;2.75;;;;;;;;;;5025345;28;20061;-89
2024/01/23 07:44:26;;;;;;;13.05;3.10;;;;;;;;;;5021989;28;20078;-89
2024/01/23 07:46:53;;;;;;;18.35;3.40;;;;;;;;;;5021495;28;20062;-89
2024/01/23 07:49:21;;;;;;;12.23;3.20;;;;;;;;;;5024077;28;20053;-88
2024/01/23 07:51:49;;;;;;;15.63;2.80;;;;;;;;;;5026513;28;20058;-89
2024/01/23 07:54:16;;;;;;;11.45;3.13;;;;;;;;;;5023964;28;20058;-88
2024/01/23 07:56:44;;;;;;;13.55;2.88;;;;;;;;;;5025026;28;20083;-89
2024/01/23 07:59:11;;;;;;;10.40;3.03;;;;;;;;;;5024749;28;20074;-90
2024/01/23 08:01:38;;;;;;;9.48;2.83;;;;;;;;;;5027436;28;20050;-89
2024/01/23 08:04:05;;;;;;;17.30;3.30;;;;;;;;;;5021883;28;20050;-90
2024/01/23 08:06:33;;;;;;;8.60;3.03;;;;;;;;;;5020049;28;20072;-89
2024/01/23 08:09:01;;;;;;;16.38;4.10;;;;;;;;;;5021620;28;20072;-89
2024/01/23 08:11:28;;;;;;;14.93;4.22;;;;;;;;;;5024636;28;20053;-89
2024/01/23 08:13:55;;;;;;;12.15;4.47;;;;;;;;;;5033960;28;20061;-90
2024/01/23 08:16:22;;;;;;;15.50;4.75;;;;;;;;;;5025451;28;20050;-90
2024/01/23 08:18:49;;;;;;;16.50;5.50;;;;;;;;;;5021334;28;20489;-90
2024/01/23 08:21:17;;;;;;;17.48;5.75;;;;;;;;;;5023365;28;20058;-90
2024/01/23 08:23:44;;;;;;;17.67;5.20;;;;;;;;;;5024577;28;20076;-89
2024/01/23 08:26:12;;;;;;;14.68;5.63;;;;;;;;;;5022554;28;20470;-90
2024/01/23 08:28:50;;;;;;;20.25;5.97;;;;;;;;;;5021104;28;20053;-89
2024/01/23 08:31:18;;;;;;;19.17;8.57;;;;;;;;;;5023636;28;20054;-89
2024/01/23 08:33:45;;;;;;;15.70;3.88;;;;;;;;;;5026407;28;20046;-89
2024/01/23 08:36:13;;;;;;;16.23;4.18;;;;;;;;;;5022499;28;20573;-90
2024/01/23 08:38:41;;;;;;;21.55;7.05;;;;;;;;;;5024327;28;20133;-90
2024/01/23 08:41:10;;;;;;;19.20;6.55;;;;;;;;;;5022945;28;20068;-90
2024/01/23 08:43:37;;;;;;;18.90;5.30;;;;;;;;;;5020763;28;20046;-89
2024/01/23 08:46:04;;;;;;;14.65;4.65;;;;;;;;;;5021557;28;20054;-90
2024/01/23 08:48:32;;;;;;;18.45;6.32;;;;;;;;;;5028280;28;20054;-90
2024/01/23 08:50:59;;;;;;;21.13;6.60;;;;;;;;;;5020804;28;20064;-89
2024/01/23 08:53:26;;;;;;;17.05;3.80;;;;;;;;;;5024414;28;20054;-89
2024/01/23 08:55:54;;;;;;;14.50;3.78;;;;;;;;;;5024127;28;20055;-90
2024/01/23 08:58:21;;;;;;;15.90;4.85;;;;;;;;;;5032126;28;20548;-89
2024/01/23 09:00:48;;;;;;;25.88;5.88;;;;;;;;;;5024078;28;20099;-90
2024/01/23 09:03:16;;;;;;;18.50;3.90;;;;;;;;;;5021938;28;20569;-90
2024/01/23 09:05:43;;;;;;;13.15;4.10;;;;;;;;;;5026762;28;20049;-89
2024/01/23 09:08:12;;;;;;;20.10;4.43;;;;;;;;;;5023690;28;20161;-88
2024/01/23 09:10:39;;;;;;;22.30;4.40;;;;;;;;;;5028912;28;20057;-89
2024/01/23 09:13:07;;;;;;;16.10;3.65;;;;;;;;;;5037130;28;20056;-90
2024/01/23 09:15:34;;;;;;;16.27;3.85;;;;;;;;;;5020451;28;20050;-90
2024/01/23 09:18:01;;;;;;;13.18;2.90;;;;;;;;;;5020903;28;20141;-90
2024/01/23 09:20:30;;;;;;;14.15;3.05;;;;;;;;;;5024174;28;20049;-89
2024/01/23 09:22:57;;;;;;;20.20;4.28;;;;;;;;;;5024087;28;20140;-90
2024/01/23 09:25:25;;;;;;;11.52;2.83;;;;;;;;;;5021638;28;20085;-90
2024/01/23 09:27:52;;;;;;;14.30;2.50;;;;;;;;;;5031361;28;20057;-90
2024/01/23 09:30:21;;;;;;;13.35;3.05;;;;;;;;;;5036029;28;20096;-90
2024/01/23 09:32:54;;;;;;;9.43;2.53;;;;;;;;;;5027522;28;20065;-90
2024/01/23 09:35:21;;;;;;;16.27;3.47;;;;;;;;;;5024502;28;20057;-89
2024/01/23 09:37:48;;;;;;;15.00;3.17;;;;;;;;;;5024315;28;20072;-89
2024/01/23 09:40:16;;;;;;;11.10;2.55;;;;;;;;;;5026213;28;20081;-90
2024/01/23 09:42:44;;;;;;;16.88;2.40;;;;;;;;;;5027369;28;20053;-90
2024/01/23 09:45:17;;;;;;;13.43;3.15;;;;;;;;;;5025265;28;20049;-90
2024/01/23 09:47:47;;;;;;;18.10;2.50;;;;;;;;;;5030155;28;20049;-89
2024/01/23 09:50:16;;;;;;;22.92;3.58;;;;;;;;;;5027065;28;20053;-90
2024/01/23 09:52:45;;;;;;;15.05;3.13;;;;;;;;;;5026971;28;20057;-89
2024/01/23 09:55:13;;;;;;;11.40;2.20;;;;;;;;;;5025457;28;20049;-89
2024/01/23 09:57:40;;;;;;;12.07;2.20;;;;;;;;;;5023967;28;20128;-90
2024/01/23 10:00:11;;;;;;;12.13;2.80;;;;;;;;;;5024531;28;20049;-90
2024/01/23 10:02:39;;;;;;;10.25;2.05;;;;;;;;;;5027106;28;20080;-89
2024/01/23 10:05:11;;;;;;;12.93;2.20;;;;;;;;;;5025772;28;20126;-90
2024/01/23 10:07:39;;;;;;;11.60;2.20;;;;;;;;;;5023417;28;20103;-89
2024/01/23 10:10:14;;;;;;;13.07;2.50;;;;;;;;;;5024266;28;20054;-89
2024/01/23 10:12:44;;;;;;;14.13;2.63;;;;;;;;;;5027032;28;20140;-89
2024/01/23 10:15:14;;;;;;;12.25;2.97;;;;;;;;;;5024404;28;20398;-89
2024/01/23 10:17:41;;;;;;;5.90;1.98;;;;;;;;;;5023664;28;20142;-88
2024/01/23 10:20:09;;;;;;;15.65;2.30;;;;;;;;;;5024822;28;20049;-88
2024/01/23 10:22:36;;;;;;;9.88;2.47;;;;;;;;;;5026954;28;20125;-87
2024/01/23 10:25:07;;;;;;;10.00;2.75;;;;;;;;;;5026021;28;20099;-89
2024/01/23 10:27:36;;;;;;;10.57;2.10;;;;;;;;;;5023340;28;20403;-89
2024/01/23 10:30:03;;;;;;;12.13;2.75;;;;;;;;;;5031635;28;20068;-89
2024/01/23 10:32:31;;;;;;;13.88;2.60;;;;;;;;;;5023266;28;20061;-88
2024/01/23 10:34:59;;;;;;;8.55;2.40;;;;;;;;;;5022847;28;20486;-89
2024/01/23 10:37:27;;;;;;;14.35;2.60;;;;;;;;;;5026564;28;20528;-89
2024/01/23 10:39:55;;;;;;;8.93;2.05;;;;;;;;;;5026347;28;20046;-87
2024/01/23 10:42:22;;;;;;;9.63;2.28;;;;;;;;;;5042787;28;20189;-88
2024/01/23 10:44:50;;;;;;;8.38;2.60;;;;;;;;;;5027486;28;20064;-89
2024/01/23 10:47:18;;;;;;;8.50;1.95;;;;;;;;;;5025134;28;20100;-88
2024/01/23 10:49:46;;;;;;;11.70;2.28;;;;;;;;;;5027195;28;20524;-88
2024/01/23 10:52:18;;;;;;;8.60;2.25;;;;;;;;;;5025876;28;20060;-87
2024/01/23 10:54:47;;;;;;;13.32;2.28;;;;;;;;;;5025847;28;20056;-89
2024/01/23 10:57:22;;;;;;;8.07;1.60;;;;;;;;;;5024111;28;20140;-88
2024/01/23 10:59:50;;;;;;;6.03;2.13;;;;;;;;;;5021817;28;20049;-89
2024/01/23 11:02:18;;;;;;;9.60;1.98;;;;;;;;;;5023299;28;20121;-89
2024/01/23 11:04:45;;;;;;;11.18;2.65;;;;;;;;;;5022526;28;20050;-88
2024/01/23 11:07:15;;;;;;;8.38;2.17;;;;;;;;;;5032381;28;20052;-88
2024/01/23 11:10:00;;;;;;;9.65;2.85;;;;;;;;;;5025916;28;20056;-88
2024/01/23 11:12:38;;;;;;;10.38;2.05;;;;;;;;;;5026260;28;20100;-89
2024/01/23 11:15:15;;;;;;;10.82;1.80;;;;;;;;;;5024821;28;20049;-89
2024/01/23 11:17:43;;;;;;;7.18;1.98;;;;;;;;;;5028264;28;20141;-88
2024/01/23 11:20:17;;;;;;;11.00;2.22;;;;;;;;;;5033738;28;20050;-88
2024/01/23 11:22:44;;;;;;;8.48;1.77;;;;;;;;;;5025537;28;20132;-87
2024/01/23 11:25:16;;;;;;;12.23;2.33;;;;;;;;;;5025217;28;20406;-88
2024/01/23 11:27:50;;;;;;;9.20;1.83;;;;;;;;;;5025182;28;20452;-87
2024/01/23 11:30:17;;;;;;;9.68;1.70;;;;;;;;;;5022627;28;20053;-87
2024/01/23 11:33:10;;;;;;;9.75;2.15;;;;;;;;;;5021921;28;20486;-87
2024/01/23 11:35:58;;;;;;;8.23;1.83;;;;;;;;;;5021661;28;20081;-88
2024/01/23 11:38:38;;;;;;;8.23;1.88;;;;;;;;;;5024689;28;20057;-88
2024/01/23 11:41:12;;;;;;;7.53;1.90;;;;;;;;;;5025150;28;20045;-87
2024/01/23 11:43:40;;;;;;;7.03;1.80;;;;;;;;;;5027742;28;20045;-88
2024/01/23 11:46:14;;;;;;;8.75;1.88;;;;;;;;;;5029290;28;20087;-87
2024/01/23 11:48:41;;;;;;;;;;;;;;;;;;5021412;28;20104;-88
2024/01/23 11:51:10;;;;;;;4.13;1.55;;;;;;;;;;5022912;28;19928;-87
2024/01/23 11:53:40;;;;;;;10.23;2.10;;;;;;;;;;5025962;28;20053;-87
2024/01/23 11:56:08;;;;;;;9.60;1.88;;;;;;;;;;5023504;28;20239;-87
2024/01/23 11:58:35;;;;;;;9.02;2.38;;;;;;;;;;5026375;28;20053;-88
2024/01/23 12:01:04;;;;;;;8.43;2.00;;;;;;;;;;5022452;28;20112;-86
2024/01/23 12:03:32;;;;;;;10.38;2.30;;;;;;;;;;5027950;28;20045;-87
2024/01/23 12:05:59;;;;;;;10.02;1.48;;;;;;;;;;5029039;28;20049;-87
2024/01/23 12:08:27;;;;;;;9.98;1.80;;;;;;;;;;5024783;28;20398;-87
2024/01/23 12:10:54;;;;;;;8.35;1.92;;;;;;;;;;5024500;28;20053;-87
2024/01/23 12:13:23;;;;;;;6.55;1.70;;;;;;;;;;5021494;28;20056;-87
2024/01/23 12:15:50;;;;;;;10.43;2.67;;;;;;;;;;5020522;28;20046;-86
2024/01/23 12:18:21;;;;;;;8.88;2.20;;;;;;;;;;5023119;28;20136;-85
2024/01/23 12:20:49;;;;;;;9.32;2.38;;;;;;;;;;5024174;28;20053;-87
2024/01/23 12:23:17;;;;;;;8.13;2.10;;;;;;;;;;5021891;28;20049;-86
2024/01/23 12:25:44;;;;;;;5.97;2.08;;;;;;;;;;5026721;28;20132;-87
2024/01/23 12:28:12;;;;;;;9.60;2.30;;;;;;;;;;5023925;28;20042;-87
2024/01/23 12:30:39;;;;;;;7.53;2.08;;;;;;;;;;5032092;28;20054;-87
2024/01/23 12:33:06;;;;;;;8.10;1.92;;;;;;;;;;5031234;28;20053;-86
2024/01/23 12:35:36;;;;;;;10.30;2.03;;;;;;;;;;5025427;28;20136;-87
2024/01/23 12:38:04;;;;;;;11.52;2.22;;;;;;;;;;5023578;28;20544;-88
2024/01/23 12:40:31;;;;;;;8.88;2.05;;;;;;;;;;5020468;28;20045;-87
2024/01/23 12:42:58;;;;;;;7.55;1.55;;;;;;;;;;5020476;28;20076;-87
2024/01/23 12:45:26;;;;;;;12.27;2.50;;;;;;;;;;5023625;28;20494;-86
2024/01/23 12:48:00;;;;;;;12.48;2.78;;;;;;;;;;5032264;28;20067;-87
2024/01/23 12:50:27;;;;;;;17.13;2.55;;;;;;;;;;5023820;28;20383;-87
2024/01/23 12:52:58;;;;;;;9.43;2.22;;;;;;;;;;5023781;28;20410;-86
2024/01/23 12:55:28;;;;;;;8.73;2.08;;;;;;;;;;5024630;28;20095;-88
2024/01/23 12:57:55;;;;;;;11.13;1.92;;;;;;;;;;5023789;28;20049;-87
2024/01/23 13:00:22;;;;;;;11.63;2.10;;;;;;;;;;5025246;28;20550;-87
2024/01/23 13:02:54;;;;;;;5.18;1.42;;;;;;;;;;5028009;28;20053;-87
2024/01/23 13:05:22;;;;;;;8.13;2.08;;;;;;;;;;5024707;28;20049;-87
2024/01/23 13:07:50;;;;;;;8.18;2.22;;;;;;;;;;5024421;28;20123;-86
2024/01/23 13:10:17;;;;;;;16.67;1.92;;;;;;;;;;5032416;28;20421;-87
2024/01/23 13:12:45;;;;;;;12.80;2.00;;;;;;;;;;5028000;28;20602;-88
2024/01/23 13:15:26;;;;;;;9.98;2.30;;;;;;;;;;5025424;28;20084;-88
2024/01/23 13:17:53;;;;;;;13.00;2.22;;;;;;;;;;5032449;28;20045;-88
2024/01/23 13:20:23;;;;;;;11.23;2.28;;;;;;;;;;5027349;28;20164;-88
2024/01/23 13:22:52;;;;;;;10.27;2.45;;;;;;;;;;5027677;28;20525;-88
2024/01/23 13:25:21;;;;;;;11.55;2.45;;;;;;;;;;5027402;28;20054;-87
2024/01/23 13:27:49;;;;;;;14.15;2.45;;;;;;;;;;5027637;28;20084;-87
2024/01/23 13:30:17;;;;;;;7.43;1.90;;;;;;;;;;5025193;28;20085;-87
2024/01/23 13:32:53;;;;;;;8.23;2.20;;;;;;;;;;5023996;28;20068;-87
2024/01/23 13:35:20;;;;;;;9.68;1.98;;;;;;;;;;5026283;28;20072;-87
2024/01/23 13:37:48;;;;;;;8.70;1.77;;;;;;;;;;5027368;28;20081;-87
2024/01/23 13:40:19;;;;;;;11.18;1.90;;;;;;;;;;5024820;28;20100;-87
2024/01/23 13:42:48;;;;;;;13.55;2.25;;;;;;;;;;5023565;28;20060;-87
2024/01/23 13:45:15;;;;;;;12.65;2.38;;;;;;;;;;5026638;28;20128;-88
2024/01/23 13:47:44;;;;;;;10.23;2.20;;;;;;;;;;5026845;28;20520;-87
2024/01/23 13:50:16;;;;;;;12.68;2.22;;;;;;;;;;5035291;28;20451;-87
2024/01/23 13:52:48;;;;;;;9.80;2.83;;;;;;;;;;5026141;28;20107;-88
2024/01/23 13:55:16;;;;;;;11.05;2.47;;;;;;;;;;5024446;28;20136;-88
2024/01/23 13:57:44;;;;;;;13.13;2.50;;;;;;;;;;5029487;28;20103;-87
2024/01/23 14:00:12;;;;;;;7.22;1.65;;;;;;;;;;5034837;28;20478;-88
2024/01/23 14:02:40;;;;;;;8.07;2.30;;;;;;;;;;5026767;28;20049;-87
2024/01/23 14:05:08;;;;;;;12.95;1.95;;;;;;;;;;5026615;28;20440;-88
2024/01/23 14:07:35;;;;;;;10.43;2.55;;;;;;;;;;5023468;28;20108;-87
2024/01/23 14:10:02;;;;;;;9.95;1.85;;;;;;;;;;5023593;28;20077;-87
2024/01/23 14:12:29;;;;;;;14.90;2.50;;;;;;;;;;5025918;28;20049;-87
2024/01/23 14:14:57;;;;;;;13.15;2.03;;;;;;;;;;5026559;28;20046;-87
2024/01/23 14:17:24;;;;;;;7.47;2.40;;;;;;;;;;5026480;28;20521;-87
2024/01/23 14:19:52;;;;;;;14.65;2.45;;;;;;;;;;5026733;28;20046;-87
2024/01/23 14:22:19;;;;;;;10.05;2.85;;;;;;;;;;5023669;28;20501;-87
2024/01/23 14:24:46;;;;;;;7.50;2.33;;;;;;;;;;5025496;28;20084;-87
2024/01/23 14:27:14;;;;;;;9.98;1.98;;;;;;;;;;5034743;28;20045;-87
2024/01/23 14:29:42;;;;;;;10.80;2.35;;;;;;;;;;5026317;28;20077;-87
2024/01/23 14:32:10;;;;;;;14.15;2.45;;;;;;;;;;5024769;28;20049;-86
2024/01/23 14:34:40;;;;;;;13.55;2.10;;;;;;;;;;5022866;28;20053;-87
2024/01/23 14:37:08;;;;;;;8.85;1.95;;;;;;;;;;5023606;28;20058;-92
2024/01/23 14:39:36;;;;;;;14.68;2.35;;;;;;;;;;5029377;28;20089;-87
2024/01/23 14:42:04;;;;;;;10.85;1.80;;;;;;;;;;5022776;28;20080;-86
2024/01/23 14:44:31;;;;;;;13.35;2.35;;;;;;;;;;5026827;28;20045;-87
2024/01/23 14:47:05;;;;;;;8.98;2.05;;;;;;;;;;5026850;28;20399;-87
2024/01/23 14:49:32;;;;;;;;;;;;;;;;;;5028374;28;20045;-89